| Date | Time | Temp. (oF) | Dew Point (oF) | Rel. Hum. (%) | Press. (in.) | Wind Dir. | Wind Speed (mph) | Hourly Rainfall (in.) |
|
|---|---|---|---|---|---|---|---|---|---|
| 1 | 06/20 | 00:00 | 70 | 67 | 93 | 29.81 | NNW | 0 | 0.00 |
| 2 | 06/19 | 23:00 | 71 | 67 | 90 | 29.81 | NE | 0 | 0.00 |
| 3 | 06/19 | 22:00 | 71 | 66 | 86 | 29.80 | WSW | 3 | 0.00 |
| 4 | 06/19 | 21:00 | 73 | 67 | 83 | 29.78 | NE | 0 | 0.00 |
| 5 | 06/19 | 20:00 | 75 | 66 | 76 | 29.75 | NW | 5 | 0.00 |
| 6 | miss | miss | miss | miss | miss | miss | miss | miss | |
| 7 | 06/19 | 17:00 | 81 | 68 | 67 | 29.74 | SSE | 6 | 0.00 |
| 8 | 06/19 | 16:59 | 81 | 68 | 67 | 29.74 | NE | 2 | 0.00 |
| 9 | 06/19 | 16:00 | 80 | 68 | 68 | 29.74 | E | 2 | 0.00 |
| 10 | 06/19 | 15:00 | 78 | 68 | 73 | 29.76 | SE | 3 | 0.00 |
| 11 | 06/19 | 14:00 | 78 | 70 | 79 | 29.78 | ENE | 5 | 0.00 |
| 12 | 06/19 | 13:00 | 74 | 69 | 85 | 29.81 | S | 0 | 0.00 |
| 13 | 06/19 | 12:00 | 71 | 69 | 95 | 29.83 | S | 2 | 0.00 |
| 14 | 06/19 | 11:00 | 70 | 69 | 98 | 29.84 | NNE | 0 | 0.00 |
| 15 | 06/19 | 10:00 | 69 | 68 | 100 | 29.84 | SSE | 0 | 0.00 |
| 16 | 06/19 | 09:00 | 68 | 68 | 100 | 29.84 | NE | 0 | 0.00 |
| 17 | 06/19 | 08:00 | 67 | 67 | 100 | 29.83 | ENE | 1 | 0.01 |
| 18 | 06/19 | 07:00 | 66 | 66 | 100 | 29.82 | E | 1 | 0.02 |
| 19 | 06/19 | 06:00 | 66 | 66 | 100 | 29.82 | ENE | 0 | 0.00 |
| 20 | 06/19 | 05:00 | 66 | 66 | 100 | 29.83 | ESE | 0 | 0.00 |
| 21 | 06/19 | 04:00 | 66 | 65 | 99 | 29.84 | SE | 0 | 0.00 |
| 22 | 06/19 | 03:00 | 67 | 66 | 99 | 29.85 | ESE | 0 | 0.00 |
| 23 | 06/19 | 02:00 | 67 | 66 | 98 | 29.86 | SSE | 0 | 0.00 |
| 24 | 06/19 | 01:00 | 68 | 67 | 97 | 29.87 | ENE | 0 | 0.00 |